createdAt,value
2024-01-20T00:00:46.061Z,47.70
2024-01-20T00:03:13.185Z,46.30
2024-01-20T00:05:40.572Z,47.70
2024-01-20T00:08:07.972Z,35.50
2024-01-20T00:10:35.350Z,47.20
2024-01-20T00:13:04.386Z,47.40
2024-01-20T00:15:31.653Z,47.90
2024-01-20T00:17:58.893Z,45.30
2024-01-20T00:20:26.339Z,32.10
2024-01-20T00:22:53.818Z,42.30
2024-01-20T00:25:22.348Z,48.40
2024-01-20T00:27:52.299Z,44.10
2024-01-20T00:30:22.555Z,41.20
2024-01-20T00:32:50.219Z,43.30
2024-01-20T00:35:17.631Z,43.60
2024-01-20T00:37:44.895Z,47.40
2024-01-20T00:40:12.758Z,40.60
2024-01-20T00:42:39.986Z,43.90
2024-01-20T00:45:08.149Z,45.30
2024-01-20T00:47:37.769Z,41.50
2024-01-20T00:50:07.443Z,38.40
2024-01-20T00:52:34.646Z,49.00
2024-01-20T00:55:01.884Z,50.50
2024-01-20T00:57:29.012Z,52.00
2024-01-20T00:59:57.528Z,44.60
2024-01-20T01:02:26.861Z,46.50
2024-01-20T01:04:57.226Z,43.10
2024-01-20T01:07:24.471Z,43.60
2024-01-20T01:09:52.216Z,47.80
2024-01-20T01:12:19.598Z,54.10
2024-01-20T01:14:46.724Z,44.90
2024-01-20T01:17:13.936Z,46.60
2024-01-20T01:19:41.379Z,48.60
2024-01-20T01:22:09.021Z,50.50
2024-01-20T01:24:36.257Z,46.50
2024-01-20T01:27:03.389Z,37.70
2024-01-20T01:29:32.914Z,48.90
2024-01-20T01:32:00.433Z,54.10
2024-01-20T01:34:27.708Z,48.60
2024-01-20T01:36:55.108Z,55.10
2024-01-20T01:39:22.806Z,57.70
2024-01-20T01:41:50.382Z,45.60
2024-01-20T01:44:17.612Z,56.20
2024-01-20T01:46:45.368Z,60.70
2024-01-20T01:49:12.790Z,60.20
2024-01-20T01:51:40.450Z,56.00
2024-01-20T01:54:10.244Z,54.00
2024-01-20T01:56:37.839Z,53.60
2024-01-20T01:59:05.109Z,53.40
2024-01-20T02:04:20.779Z,54.00
2024-01-20T02:06:58.474Z,58.10
2024-01-20T02:09:36.577Z,58.90
2024-01-20T02:12:11.561Z,54.50
2024-01-20T02:14:44.141Z,65.10
2024-01-20T02:17:14.510Z,56.00
2024-01-20T02:19:42.649Z,63.70
2024-01-20T02:22:20.899Z,62.90
2024-01-20T02:24:50.380Z,49.80
2024-01-20T02:27:37.623Z,44.20
2024-01-20T02:30:08.269Z,52.10
2024-01-20T02:32:36.005Z,59.70
2024-01-20T02:35:04.923Z,62.80
2024-01-20T02:37:33.239Z,58.10
2024-01-20T02:40:20.478Z,49.80
2024-01-20T02:42:56.700Z,45.60
2024-01-20T02:47:56.209Z,57.90
2024-01-20T02:50:26.228Z,55.60
2024-01-20T02:52:56.032Z,46.60
2024-01-20T02:58:24.333Z,46.80
2024-01-20T03:00:56.299Z,42.80
2024-01-20T03:03:26.415Z,45.90
2024-01-20T03:06:35.614Z,40.90
2024-01-20T03:09:07.318Z,40.10
2024-01-20T03:11:39.528Z,48.10
2024-01-20T03:14:27.253Z,41.90
2024-01-20T03:17:17.291Z,47.00
2024-01-20T03:20:05.650Z,38.40
2024-01-20T03:22:44.474Z,33.70
2024-01-20T03:25:32.644Z,48.50
2024-01-20T03:28:03.419Z,39.30
2024-01-20T03:30:36.818Z,44.50
2024-01-20T03:33:04.889Z,38.00
2024-01-20T03:35:37.037Z,42.70
2024-01-20T03:38:05.531Z,38.30
2024-01-20T03:40:58.686Z,48.50
2024-01-20T03:43:48.135Z,55.80
2024-01-20T03:46:47.698Z,48.40
2024-01-20T03:49:41.189Z,54.20
2024-01-20T03:52:18.418Z,32.90
2024-01-20T03:55:25.490Z,46.40
2024-01-20T04:00:27.633Z,41.70
2024-01-20T04:03:36.303Z,49.20
2024-01-20T04:06:57.099Z,42.40
2024-01-20T04:10:09.781Z,34.30
2024-01-20T04:13:05.339Z,43.00
2024-01-20T04:16:15.086Z,42.00
2024-01-20T04:18:44.789Z,39.80
2024-01-20T04:21:38.499Z,36.70
2024-01-20T04:24:52.506Z,23.60
2024-01-20T04:28:00.402Z,31.50
2024-01-20T04:30:55.708Z,34.10
2024-01-20T04:34:14.406Z,50.40
2024-01-20T04:37:31.191Z,33.50
2024-01-20T04:40:38.357Z,33.20
2024-01-20T04:43:57.623Z,32.10
2024-01-20T04:47:08.837Z,33.10
2024-01-20T04:50:19.781Z,34.60
2024-01-20T04:53:36.151Z,24.40
2024-01-20T04:57:05.958Z,47.10
2024-01-20T05:00:22.685Z,37.40
2024-01-20T05:03:49.879Z,41.30
2024-01-20T05:07:16.876Z,30.70
2024-01-20T05:10:46.169Z,30.50
2024-01-20T05:14:13.002Z,28.90
2024-01-20T05:17:41.195Z,38.60
2024-01-20T05:21:28.459Z,34.20
2024-01-20T05:25:15.325Z,32.90
2024-01-20T05:28:45.661Z,40.10
2024-01-20T05:32:12.609Z,41.70
2024-01-20T05:35:39.398Z,43.90
2024-01-20T05:39:26.294Z,44.70
2024-01-20T05:43:12.952Z,40.30
2024-01-20T05:46:59.966Z,37.10
2024-01-20T05:50:27.646Z,35.10
2024-01-20T05:53:54.993Z,41.40
2024-01-20T05:57:28.842Z,45.00
2024-01-20T06:01:16.305Z,35.60
2024-01-20T06:04:27.685Z,38.40
2024-01-20T06:07:54.626Z,41.10
2024-01-20T06:11:41.486Z,32.60
2024-01-20T06:15:28.363Z,39.20
2024-01-20T06:19:00.121Z,41.50
2024-01-20T06:22:46.791Z,34.60
2024-01-20T06:25:57.942Z,35.90
2024-01-20T06:29:25.006Z,37.90
2024-01-20T06:33:11.947Z,40.70
2024-01-20T06:36:39.338Z,39.00
2024-01-20T06:40:06.970Z,32.00
2024-01-20T06:43:34.530Z,40.90
2024-01-20T06:50:28.633Z,30.40
2024-01-20T06:54:13.114Z,34.20
2024-01-20T06:58:00.896Z,36.20
2024-01-20T07:01:47.990Z,45.80
2024-01-20T07:05:15.393Z,36.80
2024-01-20T07:09:02.229Z,36.00
2024-01-20T07:12:49.096Z,34.40
2024-01-20T07:16:35.958Z,38.40
2024-01-20T07:20:22.687Z,41.80
2024-01-20T07:24:09.543Z,36.80
2024-01-20T07:27:56.666Z,35.10
2024-01-20T07:31:39.176Z,38.60
2024-01-20T07:35:26.263Z,37.50
2024-01-20T07:39:13.150Z,35.30
2024-01-20T07:42:45.482Z,29.70
2024-01-20T07:46:35.241Z,31.00
2024-01-20T07:50:11.879Z,32.80
2024-01-20T07:53:58.769Z,27.10
2024-01-20T07:57:26.171Z,31.10
2024-01-20T08:01:13.459Z,29.70
2024-01-20T08:05:00.253Z,29.10
2024-01-20T08:08:40.386Z,28.20
2024-01-20T08:12:21.652Z,29.40
2024-01-20T08:15:49.281Z,33.10
2024-01-20T08:19:36.476Z,31.50
2024-01-20T08:23:23.376Z,37.10
2024-01-20T08:26:58.726Z,29.00
2024-01-20T08:30:27.120Z,35.50
2024-01-20T08:34:14.352Z,38.00
2024-01-20T08:37:41.966Z,35.20
2024-01-20T08:41:13.116Z,35.90
2024-01-20T08:44:59.990Z,38.10
2024-01-20T09:07:03.975Z,37.00
2024-01-20T09:10:31.927Z,23.80
2024-01-20T09:14:19.388Z,31.00
2024-01-20T09:18:06.816Z,36.50
2024-01-20T09:21:57.346Z,39.60
2024-01-20T09:25:44.464Z,33.30
2024-01-20T09:29:33.848Z,32.30
2024-01-20T09:36:51.126Z,33.60
2024-01-20T09:40:44.554Z,35.00
2024-01-20T10:02:58.544Z,45.20
2024-01-20T10:05:32.484Z,29.60
2024-01-20T10:07:59.740Z,31.40
2024-01-20T10:10:26.959Z,35.90
2024-01-20T10:13:02.576Z,28.90
2024-01-20T10:15:34.475Z,39.00
2024-01-20T10:18:10.393Z,34.70
2024-01-20T10:20:38.773Z,32.40
2024-01-20T10:23:07.702Z,31.80
2024-01-20T10:25:34.998Z,33.40
2024-01-20T10:28:02.160Z,32.00
2024-01-20T10:30:30.571Z,31.70
2024-01-20T10:33:08.899Z,33.10
2024-01-20T10:35:38.206Z,31.80
2024-01-20T10:38:12.488Z,36.50
2024-01-20T10:40:43.470Z,29.40
2024-01-20T10:43:17.661Z,31.30
2024-01-20T10:46:00.041Z,33.10
2024-01-20T11:16:19.767Z,24.70
2024-01-20T21:09:15.366Z,35.30
2024-01-20T21:13:04.317Z,38.30
2024-01-20T21:16:51.773Z,38.70
2024-01-20T21:20:41.973Z,37.10
2024-01-20T21:24:29.153Z,34.90
2024-01-20T21:28:17.863Z,34.10
2024-01-20T21:32:07.543Z,34.40
2024-01-20T21:35:53.341Z,32.90
2024-01-20T21:39:40.616Z,38.80
2024-01-20T21:43:29.048Z,32.20
2024-01-20T21:47:20.120Z,36.20
2024-01-20T21:50:45.117Z,32.40
2024-01-20T21:53:12.186Z,31.10
2024-01-20T21:55:38.934Z,37.20
2024-01-20T21:58:05.471Z,37.10
2024-01-20T22:00:32.074Z,34.50
2024-01-20T22:02:58.714Z,33.30
2024-01-20T22:05:25.501Z,35.90
2024-01-20T22:07:54.563Z,38.90
2024-01-20T22:10:20.969Z,39.10
2024-01-20T22:12:47.791Z,34.40
2024-01-20T22:15:14.609Z,37.00
2024-01-20T22:17:41.482Z,39.40
2024-01-20T22:20:09.310Z,35.60
2024-01-20T22:22:35.980Z,41.10
2024-01-20T22:25:02.489Z,38.90
2024-01-20T22:27:29.016Z,35.90
2024-01-20T22:29:55.689Z,41.30
2024-01-20T22:32:22.176Z,34.70
2024-01-20T22:34:48.824Z,36.50
2024-01-20T22:37:15.383Z,32.00
2024-01-20T22:39:41.935Z,37.30
2024-01-20T22:42:08.425Z,36.00
2024-01-20T22:44:35.184Z,37.60
2024-01-20T22:47:01.979Z,37.70
2024-01-20T22:49:30.652Z,35.80
2024-01-20T22:51:57.302Z,36.70
2024-01-20T22:54:26.320Z,36.60
2024-01-20T22:56:52.869Z,36.90
2024-01-20T22:59:19.495Z,38.60
2024-01-20T23:01:45.997Z,38.50
2024-01-20T23:04:16.882Z,36.90
2024-01-20T23:06:46.213Z,41.80
2024-01-20T23:09:12.746Z,35.90
2024-01-20T23:11:39.748Z,35.50
2024-01-20T23:14:06.253Z,42.70
2024-01-20T23:16:32.786Z,39.40
2024-01-20T23:18:59.750Z,41.70
2024-01-20T23:21:26.484Z,41.90
2024-01-20T23:23:53.150Z,32.10
2024-01-20T23:26:19.597Z,38.30
2024-01-20T23:28:46.127Z,43.90
2024-01-20T23:31:12.654Z,43.50
2024-01-20T23:33:39.676Z,39.40
2024-01-20T23:36:06.866Z,39.20
2024-01-20T23:38:33.427Z,38.00
2024-01-20T23:41:00.073Z,44.00
2024-01-20T23:43:27.185Z,38.00
2024-01-20T23:45:53.851Z,36.80
2024-01-20T23:48:20.420Z,37.50
2024-01-20T23:50:47.284Z,45.60
2024-01-20T23:53:13.822Z,34.00
2024-01-20T23:55:40.328Z,42.80
2024-01-20T23:58:06.777Z,44.70
